Terminal Aerodrome Forecast
Issued by NWS Flagstaff, AZ

Home | Current Version | Previous Version | Text Only | Print | Product List | Glossary On
Versions: 1 2 3 4 5 6 7 8 9 10 11 12 13 14 15 16
000
FTUS45 KFGZ 061330 AAB
TAFFLG
TAF AMD
KFLG 061330Z 0614/0712 22015G33KT P6SM SCT040 BKN070
     FM061900 21018G30KT P6SM SCT030 BKN050
     FM070100 23008KT P6SM SCT030 BKN050
      TEMPO 0702/0706 4SM -SHRA BKN030
     FM070600 22010KT 5SM -SHRA BKN030=

USA.gov is the U.S. government's official web portal to all federal, state and local government web resources and services.